Nevada, Ohio
Current Conditions -  °F | °C
As of 10:59 AM on Monday 24 Nov 2014 (Local Time) from KMNN Reporting Station
Light Rain Light Rain  
Wind Chill: 55°   Ceiling: 6000
Heat Index: 55°   Visibility: 3mi
Dew Point: 50°   Wind: 26mph
Humidity: 83%   Direction: 240°WSW
Pressure: 29.3"   Gusts: 41mph
Location:  40.82°N, 83.13°W
Report Text: KMNN 241559Z AUTO 24023G36KT 3SM -RA FEW023 BKN060 OVC090 13/10 A2930 RMK AO2 PK WND 23031/1555 P0001 T01280100 TSNO
Loading
Personal Weather Stations






























Interactive Weather Map New forecast layout! Learn more

10-Day Weather Forecast

Advertisements
Track Severe Weather on mobile